• Join FlightAware (Why Join?)
  • Login
  • US Flag 
08:12AM EDT


 

Airport Tracker/Info


-or-


 

Live Flight TrackerFlight Track Log ✈ DAL3970 ✈ 30-Apr-2013 ✈ KCWA - KDTW

Flight Track Log - Related Links

Times and Time Zones

All times are in EDT time to prevent confusion due to time zone crossing. See the DAL3970 flight status page for this flight to view local times or setup timezone preferences in your user account.

Time Position Orientation Groundspeed Altitude Reporting Facility
EDT Latitude Longitude Course Direction KTS MPH feet Rate Location/Type
07:59AM 44.7714 -89.5714 152° Southeast 277 319 4,000  Level Minneapolis Center
08:00AM 44.7514 -89.4831 108° East 279 321 5,500 1,920 Climbing Minneapolis Center
08:01AM 44.5787 -89.3751 153° Southeast  Level FlightAware Approximate
08:01AM 44.6761 -89.4539 165° South 271 312 8,000  Level Minneapolis Center
08:02AM 44.4937 -89.3119 152° Southeast  Level FlightAware Approximate
08:02AM 44.6036 -89.4000 152° Southeast 280 322 10,600  Level Minneapolis Center
08:03AM 44.4092 -89.2473 150° Southeast  Level FlightAware Approximate
08:04AM 44.3253 -89.1814 152° Southeast  Level FlightAware Approximate
08:04AM 44.5350 -89.3464 151° Southeast 291 335 12,500  Level Minneapolis Center
08:05AM 44.2356 -89.1141 152° Southeast  Level FlightAware Approximate
08:05AM 44.4572 -89.2861 151° Southeast 305 351 14,300  Level Minneapolis Center
08:06AM 44.3614 -89.2122 151° Southeast 323 372 16,100 1,560 Climbing Minneapolis Center
08:07AM 44.2750 -89.1472 152° Southeast 335 386 17,600 1,620 Climbing Minneapolis Center
08:08AM 44.1908 -89.0825 151° Southeast 346 398 19,500 1,380 Climbing Minneapolis Center
08:09AM 44.1181 -89.0281 152° Southeast 352 405 20,500 1,080 Climbing Minneapolis Center
08:10AM 44.0161 -88.9500 151° Southeast 359 413 22,000 1,200 Climbing Minneapolis Center
08:11AM 43.9114 -88.8703 151° Southeast 366 421 23,200 1,140 Climbing Minneapolis Center
08:12AM 43.8181 -88.8014 152° Southeast 377 434 24,400 960 Climbing Minneapolis Center
08:13AM 43.7097 -88.7200 151° Southeast 379 436 25,200 600 Climbing Minneapolis Center
08:14AM 43.6458 -88.6725 152° Southeast 384 442 25,700 600 Climbing Minneapolis Center
08:15AM 43.5311 -88.5886 152° Southeast 395 455 26,400 600 Climbing Chicago Center
08:16AM 43.4461 -88.5258 152° Southeast 399 459 26,900 540 Climbing Chicago Center
08:17AM 43.3350 -88.4433 152° Southeast 414 476 27,600 720 Climbing Chicago Center
08:18AM 43.2175 -88.3578 152° Southeast 411 473 28,500 660 Climbing Chicago Center
08:19AM 43.1231 -88.2728 147° Southeast 416 479 29,000 240 Climbing Chicago Center
08:20AM 43.0719 -88.1253 115° Southeast 444 511 29,000  Level Chicago Center
08:21AM 43.0278 -87.9683 111° Southeast 445 512 29,000  Level Chicago Center
08:22AM 42.9811 -87.8056 111° Southeast 456 525 29,000  Level Chicago Center
08:23AM 42.9358 -87.6414 111° Southeast 462 532 29,000  Level Chicago Center
08:24AM 42.8803 -87.4522 112° Southeast 460 529 29,000  Level Chicago Center
08:25AM 42.8358 -87.2989 112° Southeast 464 534 29,000  Level Chicago Center
08:26AM 42.7881 -87.1383 112° Southeast 461 531 29,000  Level Chicago Center
08:27AM 42.7408 -86.9781 112° Southeast 460 529 29,000  Level Chicago Center
08:28AM 42.6425 -86.8303 132° Southeast 452 520 29,000  Level Chicago Center
08:29AM 42.5378 -86.7222 143° Southeast 449 517 29,000  Level Chicago Center
08:30AM 42.4453 -86.6294 143° Southeast 446 513 29,000 -120 Level Chicago Center
08:31AM 42.3458 -86.5297 143° Southeast 448 516 28,800 -780 Descending Chicago Center
08:32AM 42.2394 -86.4242 144° Southeast 450 518 27,400 -900 Descending Chicago Center
08:33AM 42.1419 -86.3253 143° Southeast 443 510 27,000 -600 Descending Chicago Center
08:34AM 42.0508 -86.2333 143° Southeast 417 480 26,200 -1,500 Descending Chicago Center
08:35AM 41.9636 -86.1472 144° Southeast 397 457 24,000 -1,080 Descending Chicago Center
08:37AM 41.8600 -86.0456 144° Southeast 389 448 24,000  Level Chicago Center
08:38AM 41.7983 -85.9289 125° Southeast 405 466 24,000  Level Chicago Center
08:39AM 41.7997 -85.7747 89° East 414 476 24,000 -660 Level Chicago Center
08:40AM 41.8033 -85.6228 88° East 409 471 22,700 -1,440 Descending Chicago Center
08:41AM 41.8069 -85.4694 88° East 405 466 21,100 -1,320 Descending Chicago Center
08:42AM 41.8092 -85.3175 89° East 400 460 20,000 -540 Descending Chicago Center
08:43AM 41.8125 -85.1692 88° East 394 453 20,000  Level Chicago Center
08:43AM 41.8144 -85.0525 89° East 395 455 20,000  Level Cleveland Center
08:44AM 41.8178 -84.9106 88° East 388 447 20,000  Level Cleveland Center
08:45AM 41.8189 -84.7686 89° East 382 440 20,000 -240 Level Cleveland Center
08:46AM 41.8219 -84.6239 88° East 382 440 19,600 -780 Descending Cleveland Center
08:47AM 41.8250 -84.4761 88° East 387 445 18,500 -1,320 Descending Cleveland Center
08:48AM 41.8225 -84.4314 94° East 398 458 18,000 -1,440 Descending Cleveland Center
08:48AM 41.8258 -84.3258 88° East 387 445 17,100 -1,620 Descending Cleveland Center
08:49AM 41.8233 -84.2756 94° East 400 460 16,400 -2,520 Descending Cleveland Center
08:49AM 41.8225 -84.1694 91° East 387 445 14,600 -2,760 Descending Cleveland Center
08:50AM 41.8236 -84.1306 88° East 376 433 13,600 -2,400 Descending Cleveland Center
08:50AM 41.8308 -84.0361 84° East 373 429 12,200 -1,620 Descending Cleveland Center
08:51AM 41.8483 -84.0036 54° Northeast 337 388 12,000 -240 Descending Cleveland Center
08:51AM 41.8897 -83.9444 47° Northeast 314 361 12,000  Level Cleveland Center
08:52AM 41.9092 -83.9203 43° Northeast 310 357 12,000  Level Cleveland Center
08:52AM 41.9525 -83.8667 43° Northeast 307 353 12,000  Level Cleveland Center
08:53AM 41.9764 -83.8372 42° Northeast 308 354 12,000  Level Cleveland Center
08:53AM 42.0133 -83.7861 46° Northeast 302 348 12,000  Level Cleveland Center
08:54AM 42.0392 -83.7567 40° Northeast 307 353 12,000  Level Cleveland Center
08:54AM 42.0714 -83.7133 45° Northeast 296 341 12,000  Level Cleveland Center
08:55AM 42.0953 -83.6867 40° Northeast 264 304 12,000  Level Cleveland Center
08:55AM 42.1256 -83.6433 47° Northeast 276 318 12,000  Level Cleveland Center
08:56AM 42.1469 -83.6219 37° Northeast 262 302 12,000  Level Cleveland Center
08:56AM 42.1772 -83.5758 48° Northeast 269 310 12,000  Level Cleveland Center
08:57AM 42.2008 -83.5517 37° Northeast 257 296 12,000 -840 Level Cleveland Center
08:57AM 42.2392 -83.5225 29° Northeast 259 298 11,200 -1,620 Descending Cleveland Center
08:58AM 42.2728 -83.5072 19° North 266 306 10,200 -1,680 Descending Cleveland Center
08:59AM 42.3364 -83.4708 23° Northeast 262 302 8,800 -1,560 Descending Cleveland Center
09:00AM 42.4106 -83.4236 25° Northeast 261 300 7,100 -1,500 Descending Cleveland Center
09:01AM 42.4578 -83.3667 42° Northeast 248 285 5,700 -1,140 Descending Cleveland Center
09:02AM 42.4431 -83.2789 103° East 196 226 4,800 -900 Descending Cleveland Center
09:03AM 42.3975 -83.2711 173° South 164 189 4,000 -780 Descending Cleveland Center
09:04AM 42.3517 -83.2747 183° South 164 189 3,300 -720 Descending Cleveland Center
09:05AM 42.3111 -83.3069 210° Southwest 168 193 2,600 -720 Descending Cleveland Center